11/03/05 - 14h:28mDenunciar

Northrop F-5E Tiger II

Foto de Pascal Gabriel, retirada do site Airliners.net.



METAR SBPB 112000Z 07016KT 9999 BKN015 BKN300 31/27 Q1009=

Comentários (0)

Fotos postadas a mais de 15 dias não podem receber comentários.